Time;durP1;ratioP1;P1;durP2;ratioP2;P2;SDS_P1;SDS_P2;PMS_P1;PMS_P2;Temp;Humidity;BMP_temperature;BMP_pressure;BME280_temperature;BME280_humidity;BME280_pressure;Samples;Min_cycle;Max_cycle;Signal;HPM_P1;HPM_P2
2022/09/09 00:02:22;;;;;;;2.50;1.80;;;23.50;57.80;24.50;100012.00;;;;5068112;28;20189;-45
2022/09/09 00:05:21;;;;;;;2.77;1.63;;;23.50;57.80;24.50;100083.00;;;;5067992;28;20585;-44
2022/09/09 00:07:51;;;;;;;3.17;1.60;;;23.50;57.80;24.40;100061.00;;;;5083925;28;20181;-44
2022/09/09 00:10:30;;;;;;;2.97;1.80;;;23.50;57.70;24.40;100046.00;;;;5067688;28;20283;-44
2022/09/09 00:13:23;;;;;;;1.83;1.60;;;23.40;57.60;24.40;100053.00;;;;5052458;28;20233;-43
2022/09/09 00:15:59;;;;;;;2.63;1.80;;;23.40;57.60;24.40;100060.00;;;;5052788;28;20253;-43
2022/09/09 00:19:17;;;;;;;2.50;2.00;;;23.40;58.30;24.40;100053.00;;;;5067320;28;20601;-45
2022/09/09 00:22:08;;;;;;;3.13;1.70;;;23.40;57.70;24.40;100051.00;;;;5055396;28;20589;-44
2022/09/09 00:24:41;;;;;;;2.57;1.57;;;23.40;57.90;24.40;100037.00;;;;5067941;28;20166;-44
2022/09/09 00:27:29;;;;;;;2.60;1.73;;;23.40;58.00;24.30;100043.00;;;;5067528;28;20198;-44
2022/09/09 00:30:00;;;;;;;2.37;1.83;;;23.40;58.00;24.30;100044.00;;;;5052254;28;20162;-45
2022/09/09 00:32:29;;;;;;;2.27;1.80;;;23.30;58.00;24.30;100047.00;;;;5051288;28;20158;-44
2022/09/09 00:35:02;;;;;;;2.57;1.80;;;23.30;58.10;24.30;100046.00;;;;5078196;28;20182;-44
2022/09/09 00:37:28;;;;;;;3.43;1.90;;;23.30;58.10;24.30;100050.00;;;;5081151;28;20188;-45
2022/09/09 00:39:57;;;;;;;2.87;1.87;;;23.30;58.30;24.30;100048.00;;;;5069082;28;20173;-44
2022/09/09 00:42:52;;;;;;;2.67;1.90;;;23.30;58.30;24.30;100040.00;;;;5051742;28;20177;-44
2022/09/09 00:45:52;;;;;;;2.50;1.80;;;23.30;58.30;24.30;100053.00;;;;5065771;28;20273;-43
2022/09/09 00:48:18;;;;;;;3.53;2.00;;;23.30;58.40;24.30;100058.00;;;;5067099;28;20162;-45
2022/09/09 00:50:58;;;;;;;2.43;1.70;;;23.30;58.30;24.30;100058.00;;;;5050719;28;20255;-42
2022/09/09 00:53:57;;;;;;;1.93;1.73;;;23.30;58.40;24.30;100047.00;;;;5068607;28;20184;-43
2022/09/09 00:56:31;;;;;;;2.17;1.80;;;23.30;58.50;24.20;100043.00;;;;5054598;28;20272;-45
2022/09/09 00:59:22;;;;;;;2.33;1.73;;;23.30;58.50;24.10;100054.00;;;;5050570;28;20162;-44
2022/09/09 01:01:47;;;;;;;2.53;1.80;;;23.30;58.40;24.30;100056.00;;;;5066606;28;20300;-45
2022/09/09 01:04:16;;;;;;;2.30;1.80;;;23.30;58.50;24.20;100055.00;;;;5050631;28;20185;-43
2022/09/09 01:06:42;;;;;;;2.40;1.70;;;23.30;58.60;24.20;100051.00;;;;5063092;28;20205;-44
2022/09/09 01:09:31;;;;;;;2.00;1.70;;;23.30;58.50;24.20;100049.00;;;;5071161;28;20178;-45
2022/09/09 01:12:16;;;;;;;2.57;1.83;;;23.20;58.60;24.20;100051.00;;;;5082972;28;20276;-44
2022/09/09 01:14:51;;;;;;;2.87;1.83;;;23.20;58.30;24.20;100043.00;;;;5067004;28;20162;-44
2022/09/09 01:17:42;;;;;;;1.97;1.50;;;23.20;58.40;24.20;100043.00;;;;5066694;28;20630;-44
2022/09/09 01:20:19;;;;;;;1.90;1.70;;;23.20;58.40;24.20;100048.00;;;;5053664;28;20189;-44
2022/09/09 01:22:55;;;;;;;1.93;1.73;;;23.20;58.50;24.20;100052.00;;;;5066490;28;20254;-44
2022/09/09 01:25:44;;;;;;;3.67;1.70;;;23.20;58.40;24.20;100055.00;;;;5067089;28;20566;-43
2022/09/09 01:28:22;;;;;;;2.17;1.80;;;23.20;58.60;24.20;100049.00;;;;5067574;28;20235;-44
2022/09/09 01:30:48;;;;;;;2.30;1.90;;;23.20;58.50;24.20;100056.00;;;;5050450;28;20201;-44
2022/09/09 01:33:17;;;;;;;1.80;1.70;;;23.20;58.50;24.10;100061.00;;;;5066138;28;20170;-43
2022/09/09 01:36:00;;;;;;;1.93;1.70;;;23.20;58.60;24.20;100053.00;;;;5066901;28;20182;-43
2022/09/09 01:38:26;;;;;;;3.57;1.70;;;23.20;58.50;24.10;100049.00;;;;5077237;28;20158;-44
2022/09/09 01:40:52;;;;;;;1.90;1.50;;;23.20;58.40;24.10;100053.00;;;;5081011;28;20292;-43
2022/09/09 01:43:21;;;;;;;1.70;1.57;;;23.20;58.40;24.10;100044.00;;;;5067626;28;20859;-44
2022/09/09 01:45:47;;;;;;;2.80;1.63;;;23.20;58.40;24.10;100051.00;;;;5050297;28;20223;-43
2022/09/09 01:48:13;;;;;;;2.30;1.60;;;23.20;58.40;24.10;100047.00;;;;5065849;28;20273;-43
2022/09/09 01:50:39;;;;;;;2.27;1.60;;;23.20;58.40;24.10;100055.00;;;;5067743;28;20185;-45
2022/09/09 01:53:04;;;;;;;1.93;1.50;;;23.20;58.40;24.10;100057.00;;;;5067592;28;20748;-43
2022/09/09 01:55:33;;;;;;;2.60;1.80;;;23.20;58.40;24.10;100050.00;;;;5066126;28;20182;-44
2022/09/09 01:58:09;;;;;;;2.60;1.63;;;23.10;58.30;24.10;100056.00;;;;5049784;28;20212;-44
2022/09/09 02:00:35;;;;;;;1.77;1.60;;;23.10;58.40;24.10;100055.00;;;;5065780;28;20657;-44
2022/09/09 02:03:08;;;;;;;1.73;1.43;;;23.10;58.30;24.10;100054.00;;;;5049196;28;20623;-43
2022/09/09 02:05:44;;;;;;;1.90;1.60;;;23.00;58.30;24.10;100058.00;;;;5049769;28;20276;-44
2022/09/09 02:08:37;;;;;;;2.07;1.50;;;23.00;58.50;24.10;100052.00;;;;5065866;28;20161;-43
2022/09/09 02:11:06;;;;;;;1.53;1.43;;;23.00;58.50;24.00;100049.00;;;;5065477;28;20217;-43
2022/09/09 02:13:34;;;;;;;1.90;1.37;;;23.00;58.50;24.00;100050.00;;;;5066395;28;20688;-43
2022/09/09 02:16:10;;;;;;;2.17;1.53;;;23.00;58.30;24.00;100062.00;;;;5049458;28;20234;-43
2022/09/09 02:18:51;;;;;;;2.77;1.60;;;23.00;58.30;24.00;100057.00;;;;5065000;28;20211;-43
2022/09/09 02:21:17;;;;;;;1.50;1.40;;;23.00;58.40;24.00;100047.00;;;;5065561;28;20212;-43
2022/09/09 02:23:43;;;;;;;1.73;1.50;;;23.00;58.50;23.80;100039.00;;;;5065434;28;20268;-43
2022/09/09 02:26:10;;;;;;;2.27;1.50;;;23.00;58.40;24.00;100047.00;;;;5048829;28;20269;-43
2022/09/09 02:28:35;;;;;;;1.53;1.40;;;22.90;58.40;24.00;100050.00;;;;5048819;28;20184;-43
2022/09/09 02:31:01;;;;;;;2.57;1.63;;;22.90;58.30;23.90;100052.00;;;;5048636;28;20189;-44
2022/09/09 02:33:30;;;;;;;1.57;1.47;;;22.90;58.40;24.00;99992.00;;;;5066740;28;20181;-42
2022/09/09 02:36:01;;;;;;;1.90;1.50;;;22.90;58.40;23.90;100052.00;;;;5049473;28;20261;-43
2022/09/09 02:38:28;;;;;;;1.93;1.53;;;22.90;58.40;23.90;100056.00;;;;5073372;28;20257;-44
2022/09/09 02:40:54;;;;;;;1.73;1.63;;;22.90;58.30;23.90;100052.00;;;;5052298;28;20197;-44
2022/09/09 02:43:20;;;;;;;2.33;1.40;;;22.90;58.40;23.90;100057.00;;;;5066443;28;20200;-44
2022/09/09 02:46:24;;;;;;;2.00;1.60;;;22.90;58.30;23.90;100027.00;;;;5066356;28;20720;-44
2022/09/09 02:49:02;;;;;;;2.20;1.50;;;22.90;58.40;23.90;100055.00;;;;5043187;28;20223;-44
2022/09/09 02:51:44;;;;;;;1.53;1.40;;;22.90;58.40;23.90;100050.00;;;;5052829;28;20426;-45
2022/09/09 02:54:31;;;;;;;2.83;1.50;;;22.90;58.40;23.90;100047.00;;;;5073942;28;20185;-43
2022/09/09 02:57:10;;;;;;;2.83;1.77;;;22.90;58.20;23.80;100049.00;;;;5051259;28;20156;-43
2022/09/09 02:59:35;;;;;;;1.60;1.43;;;22.90;58.20;23.80;100042.00;;;;5065315;28;20154;-43
2022/09/09 03:02:01;;;;;;;1.93;1.70;;;22.90;58.20;23.80;100043.00;;;;5065663;28;20193;-43
2022/09/09 03:04:27;;;;;;;2.50;1.60;;;22.90;58.30;23.80;100043.00;;;;5066068;28;20174;-43
2022/09/09 03:06:52;;;;;;;2.10;1.53;;;22.90;58.30;23.80;100041.00;;;;5065989;28;20216;-43
2022/09/09 03:09:18;;;;;;;2.53;1.70;;;22.80;58.30;23.80;100044.00;;;;5065818;28;20188;-44
2022/09/09 03:11:44;;;;;;;2.23;1.60;;;22.80;58.30;23.80;100036.00;;;;5066200;28;20200;-43
2022/09/09 03:14:11;;;;;;;1.63;1.53;;;22.80;58.40;23.80;100038.00;;;;5071617;28;20728;-43
2022/09/09 03:16:37;;;;;;;1.90;1.50;;;22.80;58.50;23.80;100036.00;;;;5077226;28;20201;-43
2022/09/09 03:19:02;;;;;;;1.90;1.60;;;22.80;58.40;23.80;100032.00;;;;5068250;28;20195;-44
2022/09/09 03:21:28;;;;;;;2.77;1.53;;;22.80;58.40;23.80;100024.00;;;;5066228;28;20197;-43
2022/09/09 03:23:54;;;;;;;1.47;1.30;;;22.80;58.50;23.80;100025.00;;;;5066931;28;20173;-43
2022/09/09 03:26:20;;;;;;;1.90;1.43;;;22.80;58.30;23.80;100027.00;;;;5070348;28;20270;-50
2022/09/09 03:28:45;;;;;;;2.73;1.60;;;22.80;58.40;23.70;99997.00;;;;5085617;28;20170;-44
2022/09/09 03:31:11;;;;;;;4.93;1.63;;;22.80;58.30;23.80;100029.00;;;;5068730;28;20189;-43
2022/09/09 03:33:37;;;;;;;2.43;1.70;;;22.80;58.50;23.80;100025.00;;;;5069827;28;20162;-43
2022/09/09 03:36:04;;;;;;;2.20;1.60;;;22.80;58.30;23.70;100026.00;;;;5068920;28;20181;-43
2022/09/09 03:38:30;;;;;;;3.83;1.50;;;22.80;58.40;23.80;100022.00;;;;5070087;28;20246;-45
2022/09/09 03:40:57;;;;;;;2.60;1.87;;;22.80;58.30;23.70;100021.00;;;;5070102;28;20193;-44
2022/09/09 03:43:24;;;;;;;3.67;1.73;;;22.80;58.80;23.70;100027.00;;;;5070421;28;20192;-43
2022/09/09 03:45:49;;;;;;;2.60;1.50;;;22.80;58.60;23.70;100030.00;;;;5069702;28;20197;-43
2022/09/09 03:48:18;;;;;;;2.40;1.50;;;22.70;58.50;23.70;100031.00;;;;5070492;28;20180;-43
2022/09/09 03:50:50;;;;;;;3.10;1.70;;;22.80;58.60;23.70;100031.00;;;;5070410;28;20196;-43
2022/09/09 03:53:16;;;;;;;3.40;1.80;;;22.80;58.40;23.70;100031.00;;;;5070601;28;20645;-43
2022/09/09 03:55:52;;;;;;;2.87;1.80;;;22.80;58.50;23.70;100032.00;;;;5070656;28;20169;-44
2022/09/09 03:58:21;;;;;;;2.60;1.70;;;22.80;58.60;23.70;100021.00;;;;5083019;28;20197;-44
2022/09/09 04:01:01;;;;;;;3.13;1.80;;;22.70;58.50;23.70;100028.00;;;;5081004;28;20875;-42
2022/09/09 04:03:27;;;;;;;2.83;1.90;;;22.70;58.60;23.70;100033.00;;;;5071176;28;20282;-43
2022/09/09 04:05:53;;;;;;;2.30;1.80;;;22.70;58.60;23.70;100038.00;;;;5070093;28;20229;-43
2022/09/09 04:08:19;;;;;;;3.17;1.97;;;22.70;59.20;23.70;99962.00;;;;5069651;28;20170;-45
2022/09/09 04:10:47;;;;;;;2.43;1.87;;;22.70;58.60;23.70;100032.00;;;;5070003;28;20225;-45
2022/09/09 04:13:16;;;;;;;3.83;1.80;;;22.70;58.70;23.70;100036.00;;;;5070271;28;20165;-44
2022/09/09 04:15:43;;;;;;;4.50;1.80;;;22.70;58.70;23.60;100034.00;;;;5069454;28;20170;-43
2022/09/09 04:18:09;;;;;;;2.23;1.70;;;22.70;58.60;23.60;100023.00;;;;5070355;28;20176;-44
2022/09/09 04:20:35;;;;;;;2.37;1.90;;;22.70;58.60;23.60;100031.00;;;;5070007;28;20190;-44
2022/09/09 04:23:01;;;;;;;2.97;1.70;;;22.60;58.50;23.60;100027.00;;;;5070184;28;20177;-43
2022/09/09 04:25:26;;;;;;;3.30;1.97;;;22.60;58.60;23.60;100020.00;;;;5069792;28;20513;-43
2022/09/09 04:27:58;;;;;;;3.00;1.70;;;22.60;58.50;23.60;100024.00;;;;5069746;28;20432;-43
2022/09/09 04:30:24;;;;;;;2.17;1.80;;;22.50;58.70;23.60;100027.00;;;;5069830;28;20296;-43
2022/09/09 04:32:50;;;;;;;2.77;1.93;;;22.60;58.80;23.60;100023.00;;;;5060510;28;20189;-43
2022/09/09 04:35:16;;;;;;;2.60;1.70;;;22.50;58.90;23.50;100029.00;;;;5054371;28;20194;-43
2022/09/09 04:37:42;;;;;;;3.53;2.00;;;22.60;59.10;23.50;100030.00;;;;5049134;28;20162;-44
2022/09/09 04:40:09;;;;;;;4.30;1.80;;;22.60;59.00;23.50;100023.00;;;;5050010;28;20177;-43
2022/09/09 04:42:38;;;;;;;3.47;1.90;;;22.50;58.70;23.50;100024.00;;;;5052350;28;20173;-44
2022/09/09 04:45:06;;;;;;;3.30;1.60;;;22.50;58.80;23.50;100031.00;;;;5049485;28;20310;-43
2022/09/09 04:47:32;;;;;;;2.03;1.60;;;22.50;59.10;23.50;100032.00;;;;5060392;28;20549;-43
2022/09/09 04:49:58;;;;;;;3.30;1.90;;;22.50;59.10;23.50;100038.00;;;;5052430;28;20167;-43
2022/09/09 04:52:24;;;;;;;3.57;1.87;;;22.50;59.00;23.50;100032.00;;;;5049292;28;20197;-43
2022/09/09 04:54:50;;;;;;;3.60;1.97;;;22.50;59.00;23.50;100029.00;;;;5048224;28;20195;-43
2022/09/09 04:57:16;;;;;;;3.53;1.80;;;22.50;58.90;23.50;100035.00;;;;5048715;28;20178;-43
2022/09/09 04:59:41;;;;;;;3.53;1.97;;;22.50;59.00;23.50;100041.00;;;;5055119;28;20209;-43
2022/09/09 05:02:07;;;;;;;2.33;1.70;;;22.50;58.90;23.50;100043.00;;;;5066078;28;20693;-43
2022/09/09 05:04:33;;;;;;;3.30;2.00;;;22.50;58.80;23.50;100033.00;;;;5070598;28;20257;-43
2022/09/09 05:06:59;;;;;;;2.23;1.70;;;22.50;59.00;23.50;100039.00;;;;5055172;28;20190;-42
2022/09/09 05:09:25;;;;;;;2.47;1.80;;;22.50;59.00;23.50;100036.00;;;;5049194;28;20170;-42
2022/09/09 05:11:51;;;;;;;2.70;1.67;;;22.50;59.10;23.40;100034.00;;;;5047885;28;20612;-43
2022/09/09 05:14:17;;;;;;;3.30;1.60;;;22.40;59.10;23.40;100043.00;;;;5048553;28;20502;-42
2022/09/09 05:16:44;;;;;;;2.20;1.70;;;22.40;59.10;23.40;100042.00;;;;5048623;28;20235;-43
2022/09/09 05:19:10;;;;;;;3.70;1.70;;;22.50;59.10;23.40;100038.00;;;;5047516;28;20193;-45
2022/09/09 05:21:36;;;;;;;2.43;1.70;;;22.40;59.30;23.40;100044.00;;;;5048049;28;20669;-43
2022/09/09 05:24:02;;;;;;;2.57;1.70;;;22.40;59.40;23.40;100030.00;;;;5048434;28;20245;-44
2022/09/09 05:26:29;;;;;;;2.93;1.90;;;22.30;59.30;23.40;100029.00;;;;5048082;28;20696;-44
2022/09/09 05:28:55;;;;;;;2.60;1.90;;;22.30;59.60;23.40;100031.00;;;;5047104;28;20224;-44
2022/09/09 05:31:20;;;;;;;2.50;1.80;;;22.40;59.50;23.30;100031.00;;;;5046717;28;20214;-44
2022/09/09 05:33:47;;;;;;;2.97;2.03;;;22.40;59.30;23.40;100033.00;;;;5047979;28;20189;-44
2022/09/09 05:36:15;;;;;;;3.67;2.00;;;22.30;59.20;23.30;100023.00;;;;5048752;28;20243;-43
2022/09/09 05:38:41;;;;;;;3.10;1.90;;;22.40;59.20;23.30;100001.00;;;;5048109;28;20257;-42
2022/09/09 05:41:07;;;;;;;3.83;2.00;;;22.40;59.30;23.30;100025.00;;;;5047689;28;20198;-43
2022/09/09 05:43:35;;;;;;;3.17;1.70;;;22.30;59.30;23.30;100029.00;;;;5046793;28;20201;-43
2022/09/09 05:46:05;;;;;;;3.10;1.80;;;22.30;59.50;23.30;100045.00;;;;5048185;28;20595;-44
2022/09/09 05:48:32;;;;;;;2.07;1.60;;;22.30;59.70;23.30;100024.00;;;;5047126;28;20182;-43
2022/09/09 05:50:59;;;;;;;3.07;1.80;;;22.30;59.70;23.30;100030.00;;;;5046402;28;20189;-43
2022/09/09 05:53:25;;;;;;;3.23;1.90;;;22.30;59.70;23.30;100033.00;;;;5049451;28;20172;-43
2022/09/09 05:56:00;;;;;;;2.53;1.70;;;22.30;59.80;23.30;100036.00;;;;5051203;28;20174;-43
2022/09/09 05:58:25;;;;;;;2.90;1.90;;;22.30;59.90;23.30;100047.00;;;;5048209;28;20185;-43
2022/09/09 06:00:51;;;;;;;2.00;1.60;;;22.20;59.80;23.30;100053.00;;;;5047392;28;20182;-43
2022/09/09 06:03:17;;;;;;;2.87;1.90;;;22.20;59.70;23.30;100044.00;;;;5047747;28;20227;-43
2022/09/09 06:05:43;;;;;;;3.37;1.77;;;22.30;60.00;23.20;100045.00;;;;5054849;28;20251;-44
2022/09/09 06:08:08;;;;;;;2.23;1.70;;;22.30;60.00;23.20;100041.00;;;;5049152;28;20220;-43
2022/09/09 06:10:34;;;;;;;3.03;1.97;;;22.30;60.20;23.20;100047.00;;;;5048519;28;20228;-44
2022/09/09 06:13:00;;;;;;;2.80;1.90;;;22.20;60.10;23.20;100043.00;;;;5047462;28;20635;-44
2022/09/09 06:15:26;;;;;;;4.33;2.10;;;22.20;60.10;23.20;100035.00;;;;5049228;28;20173;-44
2022/09/09 06:17:55;;;;;;;2.13;1.57;;;22.20;60.30;23.20;100044.00;;;;5049081;28;20535;-44
2022/09/09 06:20:22;;;;;;;4.70;1.90;;;22.20;60.20;23.20;100045.00;;;;5048819;28;20186;-44
2022/09/09 06:22:48;;;;;;;3.20;1.90;;;22.20;60.20;23.20;100040.00;;;;5048154;28;20178;-43
2022/09/09 06:25:14;;;;;;;2.77;1.80;;;22.20;60.30;23.10;100048.00;;;;5049338;28;20178;-43
2022/09/09 06:27:41;;;;;;;2.93;1.63;;;22.20;60.30;23.20;100041.00;;;;5048745;28;20205;-43
2022/09/09 06:30:09;;;;;;;3.00;1.87;;;22.20;60.30;23.10;100049.00;;;;5048898;28;20174;-44
2022/09/09 06:32:37;;;;;;;2.40;1.80;;;22.20;60.50;23.10;100052.00;;;;5048396;28;20193;-43
2022/09/09 06:35:03;;;;;;;3.67;1.90;;;22.10;60.50;23.10;100049.00;;;;5048747;28;20185;-43
2022/09/09 06:37:29;;;;;;;3.70;2.00;;;22.10;60.30;23.10;100050.00;;;;5048532;28;20201;-44
2022/09/09 06:39:55;;;;;;;1.83;1.53;;;22.10;60.40;23.10;100047.00;;;;5048627;28;20582;-42
2022/09/09 06:42:20;;;;;;;2.53;1.70;;;22.20;60.30;23.10;100048.00;;;;5048392;28;20178;-43
2022/09/09 06:44:46;;;;;;;3.60;1.67;;;22.20;60.30;23.20;100045.00;;;;5048439;28;20627;-43
2022/09/09 06:47:12;;;;;;;2.23;1.60;;;22.20;60.50;23.10;100050.00;;;;5053401;28;20191;-43
2022/09/09 06:49:38;;;;;;;2.10;1.60;;;22.10;60.30;23.10;100056.00;;;;5060949;28;20276;-44
2022/09/09 06:52:03;;;;;;;3.30;1.77;;;22.10;60.30;23.10;100049.00;;;;5047291;28;20534;-44
2022/09/09 06:54:29;;;;;;;2.43;1.80;;;22.10;60.40;23.10;100049.00;;;;5047371;28;20162;-42
2022/09/09 06:56:55;;;;;;;3.47;2.00;;;22.10;60.40;23.10;100062.00;;;;5047643;28;20180;-43
2022/09/09 06:59:21;;;;;;;3.13;1.87;;;22.10;60.40;23.10;100047.00;;;;5048497;28;20568;-43
2022/09/09 07:01:46;;;;;;;2.80;2.00;;;22.10;60.30;23.10;100056.00;;;;5045788;28;20206;-43
2022/09/09 07:04:12;;;;;;;2.90;1.83;;;22.10;60.50;23.10;100056.00;;;;4926298;28;20751;-42
2022/09/09 07:06:43;;;;;;;3.67;1.80;;;22.10;60.30;23.10;100040.00;;;;5067895;28;20771;-43
2022/09/09 07:09:11;;;;;;;2.80;1.73;;;22.10;60.50;23.10;100055.00;;;;5068514;28;20181;-43
2022/09/09 07:11:45;;;;;;;5.67;1.93;;;22.10;60.40;23.10;100053.00;;;;5068186;28;20209;-43
2022/09/09 07:14:14;;;;;;;2.67;2.00;;;22.10;60.60;23.10;100052.00;;;;5068982;28;20287;-44
2022/09/09 07:16:43;;;;;;;2.57;1.80;;;22.10;60.50;23.10;100051.00;;;;5081912;28;20544;-42
2022/09/09 07:19:10;;;;;;;2.70;1.70;;;22.20;60.40;23.10;100049.00;;;;5092967;28;20183;-43
2022/09/09 07:21:36;;;;;;;3.73;1.90;;;22.10;60.60;23.10;100057.00;;;;5084558;28;20189;-43
2022/09/09 07:24:02;;;;;;;2.77;1.90;;;22.20;60.60;23.00;100060.00;;;;5088163;28;20654;-44
2022/09/09 07:26:29;;;;;;;2.23;1.87;;;22.10;60.40;23.10;100051.00;;;;5088530;28;20585;-43
2022/09/09 07:28:56;;;;;;;3.03;1.83;;;22.10;60.40;23.10;100065.00;;;;5087932;28;20200;-43
2022/09/09 07:31:34;;;;;;;2.30;1.90;;;22.10;60.30;23.10;100064.00;;;;5088178;28;20215;-45
2022/09/09 07:34:00;;;;;;;3.37;1.90;;;22.10;60.50;23.10;100066.00;;;;5088171;28;20165;-43
2022/09/09 07:36:33;;;;;;;4.17;2.00;;;22.10;60.30;23.10;100066.00;;;;5087897;28;20165;-44
2022/09/09 07:39:07;;;;;;;3.37;1.93;;;22.10;60.20;23.10;100074.00;;;;5087886;28;20188;-44
2022/09/09 07:41:39;;;;;;;4.83;2.30;;;22.20;60.30;23.10;100068.00;;;;5088054;28;20204;-42
2022/09/09 07:44:10;;;;;;;2.70;1.93;;;22.20;60.50;23.10;100077.00;;;;5087891;28;20595;-43
2022/09/09 07:46:36;;;;;;;3.40;2.10;;;22.20;60.30;23.10;100075.00;;;;5088032;28;20191;-43
2022/09/09 07:49:03;;;;;;;2.93;1.70;;;22.10;60.20;23.10;100073.00;;;;5087795;28;20539;-43
2022/09/09 07:51:34;;;;;;;2.97;1.97;;;22.10;60.20;23.00;100086.00;;;;5087487;28;20283;-43
2022/09/09 07:54:05;;;;;;;4.30;2.20;;;22.10;60.10;23.10;100079.00;;;;5087674;28;20176;-43
2022/09/09 07:56:31;;;;;;;4.10;1.90;;;22.10;60.10;23.00;100081.00;;;;5082860;28;20252;-43
2022/09/09 07:58:58;;;;;;;4.43;2.00;;;22.10;60.00;23.00;100092.00;;;;5067419;28;20181;-43
2022/09/09 08:01:38;;;;;;;2.67;1.87;;;22.10;60.00;23.00;100087.00;;;;5065615;28;20198;-43
2022/09/09 08:04:16;;;;;;;3.57;2.30;;;22.10;60.00;23.00;100088.00;;;;4952931;28;20692;-43
2022/09/09 08:06:46;;;;;;;6.40;2.00;;;22.10;60.00;23.00;100080.00;;;;5067250;28;20181;-44
2022/09/09 08:09:12;;;;;;;4.53;2.00;;;22.10;60.00;23.00;100083.00;;;;5067650;28;20182;-43
2022/09/09 08:11:38;;;;;;;3.90;1.93;;;22.10;59.70;23.00;100088.00;;;;5069683;28;20188;-42
2022/09/09 08:14:04;;;;;;;2.80;1.93;;;22.10;59.60;23.00;100082.00;;;;5071187;28;20161;-43
2022/09/09 08:16:32;;;;;;;3.33;1.80;;;22.20;59.60;23.00;100091.00;;;;5070971;28;20176;-43
2022/09/09 08:18:58;;;;;;;3.80;2.00;;;22.10;59.60;23.00;100089.00;;;;5071079;28;20223;-44
2022/09/09 08:21:27;;;;;;;3.50;2.03;;;22.10;59.60;23.00;100088.00;;;;5070710;28;20193;-44
2022/09/09 08:23:54;;;;;;;2.50;1.70;;;22.10;59.40;23.00;100082.00;;;;5071419;28;20658;-41
2022/09/09 08:26:22;;;;;;;2.77;1.80;;;22.10;59.30;23.00;100081.00;;;;5071261;28;20451;-43
2022/09/09 08:28:49;;;;;;;4.43;2.10;;;22.10;59.20;23.00;100077.00;;;;5072263;28;20170;-44
2022/09/09 08:31:20;;;;;;;3.23;2.00;;;22.10;59.10;23.00;100082.00;;;;5070428;28;20178;-44
2022/09/09 08:33:46;;;;;;;2.60;2.00;;;22.10;59.00;23.00;100081.00;;;;5053133;28;20519;-44
2022/09/09 08:36:17;;;;;;;4.83;2.20;;;22.10;58.90;23.00;100084.00;;;;5070414;28;20165;-43
2022/09/09 08:38:43;;;;;;;3.33;2.07;;;22.10;58.90;23.00;100079.00;;;;5070308;28;20161;-44
2022/09/09 08:42:00;;;;;;;3.10;1.93;;;22.20;58.90;23.00;100092.00;;;;5068940;28;20250;-44
2022/09/09 08:44:31;;;;;;;3.87;2.00;;;22.20;58.80;23.00;100078.00;;;;5070965;28;20178;-43
2022/09/09 08:47:17;;;;;;;3.93;2.10;;;22.20;59.20;23.00;100084.00;;;;5082749;28;20265;-43
2022/09/09 08:50:24;;;;;;;7.13;2.03;;;22.20;59.20;23.00;100075.00;;;;5075248;28;20158;-44
2022/09/09 08:53:02;;;;;;;6.77;2.43;;;22.20;59.20;23.00;100081.00;;;;5089871;28;20154;-45
2022/09/09 08:55:54;;;;;;;6.77;2.10;;;22.20;59.40;23.00;100090.00;;;;5090964;28;20164;-43
2022/09/09 08:58:29;;;;;;;3.77;2.30;;;22.20;59.40;23.10;100090.00;;;;5045748;28;20189;-43
2022/09/09 09:01:16;;;;;;;3.20;2.20;;;22.20;59.30;23.10;100094.00;;;;5052982;28;20197;-43
2022/09/09 09:04:11;;;;;;;3.03;2.00;;;22.20;59.30;23.10;100095.00;;;;5055090;28;20593;-44
2022/09/09 09:06:48;;;;;;;3.93;2.10;;;22.20;59.40;22.90;100103.00;;;;5069293;28;20186;-43
2022/09/09 09:10:04;;;;;;;4.50;2.40;;;22.20;59.40;23.10;100094.00;;;;5069971;28;20559;-43
2022/09/09 09:12:35;;;;;;;7.10;2.40;;;22.20;59.70;23.10;100095.00;;;;5026509;28;20547;-43
2022/09/09 09:15:01;;;;;;;4.07;2.30;;;22.20;60.20;23.10;100099.00;;;;5067636;28;20261;-43
2022/09/09 09:17:31;;;;;;;4.23;2.20;;;22.20;60.40;23.10;100100.00;;;;5070210;28;20248;-44
2022/09/09 09:19:57;;;;;;;3.97;2.13;;;22.20;59.80;23.10;100106.00;;;;5053293;28;20241;-44
2022/09/09 09:22:32;;;;;;;4.30;2.07;;;22.20;59.70;23.10;100093.00;;;;5052444;28;20181;-43
2022/09/09 09:25:04;;;;;;;5.07;2.20;;;22.20;59.60;23.10;100100.00;;;;5069180;28;20505;-44
2022/09/09 09:28:05;;;;;;;4.87;2.10;;;22.20;59.50;23.20;100089.00;;;;5068613;28;20654;-43
2022/09/09 09:30:45;;;;;;;5.83;2.10;;;22.20;59.40;23.20;100096.00;;;;5068319;28;20224;-44
2022/09/09 09:33:40;;;;;;;11.77;2.27;;;22.20;59.20;23.20;100097.00;;;;5068682;28;20200;-43
2022/09/09 09:36:08;;;;;;;6.80;2.20;;;22.20;59.30;23.20;100099.00;;;;5071964;28;20155;-45
2022/09/09 09:38:34;;;;;;;5.37;2.10;;;22.30;59.30;23.20;100099.00;;;;5072603;28;20169;-44
2022/09/09 09:41:00;;;;;;;6.07;2.37;;;22.20;59.30;23.20;100094.00;;;;5071319;28;20226;-42
2022/09/09 09:43:36;;;;;;;6.23;2.10;;;22.20;59.40;23.20;100102.00;;;;5071004;28;20279;-43
2022/09/09 09:46:05;;;;;;;4.50;1.87;;;22.20;59.40;23.20;100105.00;;;;4946131;28;20220;-43
2022/09/09 09:48:32;;;;;;;4.00;2.10;;;22.20;59.30;23.20;100105.00;;;;5048556;28;20209;-43
2022/09/09 09:51:00;;;;;;;3.23;2.07;;;22.20;59.10;23.20;100096.00;;;;5081222;28;20567;-42
2022/09/09 09:53:26;;;;;;;4.53;2.00;;;22.30;59.20;23.20;100106.00;;;;5070998;28;20173;-43
2022/09/09 09:56:12;;;;;;;5.33;2.07;;;22.20;59.10;23.20;100103.00;;;;5068274;28;20192;-41
2022/09/09 09:58:44;;;;;;;3.27;2.03;;;22.30;59.10;23.20;100104.00;;;;5069094;28;20176;-43
2022/09/09 10:01:29;;;;;;;4.03;1.97;;;22.20;58.70;23.20;100096.00;;;;5069608;28;20220;-42
2022/09/09 10:04:12;;;;;;;3.53;1.87;;;22.30;58.60;23.20;100104.00;;;;5068083;28;20461;-43
2022/09/09 10:06:39;;;;;;;4.03;1.87;;;22.20;58.20;23.20;100101.00;;;;5054747;28;20602;-42
2022/09/09 10:09:32;;;;;;;3.20;1.87;;;22.20;58.20;23.20;100110.00;;;;5068784;28;20473;-42
2022/09/09 10:12:19;;;;;;;2.80;1.63;;;22.20;58.20;23.20;100104.00;;;;5067573;28;20781;-43
2022/09/09 10:14:54;;;;;;;3.50;1.57;;;22.20;58.10;23.20;100098.00;;;;5068139;28;20182;-43
2022/09/09 10:17:58;;;;;;;3.23;2.00;;;22.20;58.10;23.20;100112.00;;;;5063629;28;20256;-42
2022/09/09 10:20:35;;;;;;;2.87;1.87;;;22.30;58.20;23.20;100091.00;;;;5068701;28;20622;-43
2022/09/09 10:23:34;;;;;;;2.73;1.60;;;22.20;58.00;23.20;100082.00;;;;5075404;28;20169;-42
2022/09/09 10:26:45;;;;;;;2.77;1.50;;;22.20;58.00;23.20;100101.00;;;;5047859;28;20178;-41
2022/09/09 10:29:26;;;;;;;2.20;1.80;;;22.20;57.90;23.10;100088.00;;;;5031564;28;20264;-42
2022/09/09 10:32:07;;;;;;;2.73;1.80;;;22.20;58.00;23.20;100099.00;;;;5052924;28;20723;-44
2022/09/09 10:35:02;;;;;;;5.93;2.03;;;22.20;58.10;23.20;100097.00;;;;5072912;28;20199;-42
2022/09/09 10:38:00;;;;;;;6.40;2.43;;;22.20;58.30;23.10;100085.00;;;;5062185;28;20174;-43
2022/09/09 10:40:32;;;;;;;6.07;2.20;;;22.20;58.20;23.10;100083.00;;;;5068685;28;20387;-43
2022/09/09 10:43:20;;;;;;;5.43;1.90;;;22.20;58.30;23.20;100078.00;;;;5068245;28;20177;-42
2022/09/09 10:46:11;;;;;;;4.17;1.90;;;22.20;58.30;23.20;100080.00;;;;4938765;28;21950;-43
2022/09/09 10:49:00;;;;;;;8.17;2.17;;;22.30;58.20;23.20;100073.00;;;;5100890;28;20325;-43
2022/09/09 10:51:49;;;;;;;5.03;2.03;;;22.30;58.10;23.10;100064.00;;;;5072973;28;20181;-42
2022/09/09 10:54:34;;;;;;;2.17;1.87;;;22.20;57.80;23.10;100082.00;;;;5087402;28;20157;-43
2022/09/09 10:57:05;;;;;;;3.47;1.90;;;22.20;57.90;23.10;100079.00;;;;5088207;28;20173;-42
2022/09/09 10:59:38;;;;;;;3.43;1.97;;;22.20;57.90;23.10;100068.00;;;;5071108;28;20158;-43
2022/09/09 11:02:23;;;;;;;3.77;2.00;;;22.20;57.90;23.10;100070.00;;;;5071244;28;20671;-41
2022/09/09 11:05:39;;;;;;;2.70;1.90;;;22.20;57.80;23.20;100079.00;;;;5087938;28;20766;-41
2022/09/09 11:08:27;;;;;;;4.23;2.00;;;22.20;57.80;23.10;100058.00;;;;5009874;28;20606;-44
2022/09/09 11:11:39;;;;;;;3.63;1.70;;;22.20;57.70;23.20;100077.00;;;;5066339;28;20294;-43
2022/09/09 11:14:19;;;;;;;3.97;1.83;;;22.20;57.60;23.20;100070.00;;;;5088296;28;20237;-42